Huvudsida
METAR-TAF:

METAR-TAF

Flygplatser :

Lecce, Italien

latitud: 40-14N, longitud: 018-09E, höjd: 48 m

Aktuellt väderrapport

Denna rapport gjordes för 49 minuter sedan, klockan 13:55 UTC
Vind 12 kt från nord
Temperatur 31°C
Fuktighet 55%
Tryck 1017 hPa
Sikt 10 km eller mer
Inga moln under 1 500 m eller inga cumulonimbus

METAR: LIBN 261355Z 01012KT CAVOK 31/21 Q1017 RMK BKN BKN200 VIS MIN 9999 WIND THR14 36013KT WIND THR32 01013KT BLU

Tid: 16:44 (14:44 UTC)

Väderprognos

Denna rapport gjordes för 44 minuter sedan, klockan 14:00 UTC
Prognos gäller från 26 kl. 15 UTC till 26 kl. 24 UTC
Vind 12 kt från nord
Sikt 10 km eller mer
Inga moln under 1 500 m eller inga cumulonimbus

TAF: LIBN 261400Z 2615/2624 35012KT CAVOK

Aktuella väderrapporter och prognoser från 4000 flygplatser (METAR- och TAF-rapporter).

De tillgängliga stationerna syns som gula och röda prickar på kartan.

För musen över prickarna för att se namnen på stationerna.

Klicka sedan för att få väderrapporter och prognoser.

För att ändra kartan: Klicka på de gröna knapparna med ett svart kors på för att zooma in; den gröna knappen med ett streck på för att zooma ut; eller på de gröna pilarna för angränsande kartor.


METAR-TAF: